Weather reports worldwide

Advertisment
Cassley, United Kingdom (99003): temperature & dewpoint: 19.05.2018 04:00:00 - 25.05.2018 04:00:00 (BST)Cassley, United Kingdom (99003): precipitation: 19.05.2018 04:00:00 - 25.05.2018 04:00:00 (BST)
Date & Time tt [°C] td [°C] rr [mm]
25.05.2018 04:00:00 - - -
25.05.2018 03:00:00 10,8 9,1 0,0
25.05.2018 02:00:00 10,8 9,1 0,0
25.05.2018 01:00:00 10,9 9,2 0,0
25.05.2018 00:00:00 11,4 9,0 0,0
24.05.2018 23:00:00 12,6 9,7 0,0
24.05.2018 22:00:00 13,7 9,4 0,0
24.05.2018 21:00:00 15,5 9,7 0,0
24.05.2018 20:00:00 17,2 10,4 0,0
24.05.2018 19:00:00 19,2 8,8 0,0
24.05.2018 18:00:00 19,4 9,8 0,0
24.05.2018 17:00:00 20,5 10,0 0,0
24.05.2018 16:00:00 22,5 10,3 0,0
24.05.2018 15:00:00 21,8 8,7 0,0
24.05.2018 14:00:00 20,4 9,0 0,0
24.05.2018 13:00:00 17,8 8,7 0,0
24.05.2018 12:00:00 14,5 9,2 0,0
24.05.2018 11:00:00 11,1 9,4 0,0
24.05.2018 10:00:00 9,1 8,9 0,0
24.05.2018 09:00:00 6,8 6,8 0,0
24.05.2018 08:00:00 6,1 6,0 0,0
24.05.2018 07:00:00 5,7 5,6 0,0
24.05.2018 06:00:00 5,6 5,4 0,0
24.05.2018 05:00:00 5,1 4,9 0,0
24.05.2018 04:00:00 4,7 4,3 0,0
24.05.2018 03:00:00 5,2 4,7 0,0
24.05.2018 02:00:00 5,6 5,0 0,0
24.05.2018 01:00:00 5,8 4,9 0,0
24.05.2018 00:00:00 6,4 5,0 0,0
23.05.2018 23:00:00 7,3 4,9 0,0
23.05.2018 22:00:00 9,5 6,8 0,0
23.05.2018 21:00:00 11,4 8,3 0,0
23.05.2018 20:00:00 12,1 8,6 0,0
23.05.2018 19:00:00 13,8 9,0 0,0
23.05.2018 18:00:00 15,4 9,7 0,0
23.05.2018 17:00:00 15,6 9,7 0,0
23.05.2018 16:00:00 15,9 9,5 0,0
23.05.2018 15:00:00 16,8 8,5 0,0
23.05.2018 14:00:00 14,8 8,3 0,0
23.05.2018 13:00:00 13,7 8,3 0,0
23.05.2018 12:00:00 13,7 8,5 0,0
23.05.2018 11:00:00 12,5 8,1 0,0
23.05.2018 10:00:00 10,5 6,8 0,0
23.05.2018 09:00:00 9,4 6,4 0,0
23.05.2018 08:00:00 9,2 6,1 0,0
23.05.2018 07:00:00 8,2 6,4 0,0
23.05.2018 06:00:00 7,8 6,3 0,0
23.05.2018 05:00:00 7,4 6,0 0,0
23.05.2018 04:00:00 7,3 5,9 0,0
23.05.2018 03:00:00 7,4 5,6 0,0
23.05.2018 02:00:00 7,6 5,3 0,0
23.05.2018 01:00:00 7,5 5,2 0,0
23.05.2018 00:00:00 7,4 5,0 0,0
22.05.2018 23:00:00 8,0 4,8 0,0
22.05.2018 22:00:00 8,4 5,0 0,0
22.05.2018 21:00:00 8,5 4,8 0,0
22.05.2018 20:00:00 9,2 5,0 0,0
22.05.2018 19:00:00 10,0 5,6 0,0
22.05.2018 18:00:00 10,4 5,5 0,0
22.05.2018 17:00:00 10,2 5,8 0,0
22.05.2018 16:00:00 10,1 6,3 0,0
22.05.2018 15:00:00 10,1 6,1 0,0
22.05.2018 14:00:00 9,7 6,1 0,0
22.05.2018 13:00:00 9,9 5,6 0,0
22.05.2018 12:00:00 9,6 5,6 0,0
22.05.2018 11:00:00 9,2 5,2 0,0
22.05.2018 10:00:00 9,2 4,9 0,0
22.05.2018 09:00:00 8,7 4,5 0,0
22.05.2018 08:00:00 7,3 4,0 0,0
22.05.2018 07:00:00 6,7 4,3 0,0
22.05.2018 06:00:00 6,5 4,3 0,0
22.05.2018 05:00:00 6,3 4,0 0,0
22.05.2018 04:00:00 5,7 4,1 0,0
22.05.2018 03:00:00 5,3 4,0 0,0
22.05.2018 02:00:00 2,8 1,8 0,0
22.05.2018 01:00:00 3,2 2,2 0,0
22.05.2018 00:00:00 5,0 3,9 0,0
21.05.2018 23:00:00 5,9 4,3 0,0
21.05.2018 22:00:00 6,7 4,7 0,0
21.05.2018 21:00:00 6,6 4,6 0,0
21.05.2018 20:00:00 6,8 4,6 0,6
21.05.2018 19:00:00 6,8 5,0 0,6
21.05.2018 18:00:00 7,1 5,2 0,6
21.05.2018 17:00:00 7,5 5,8 0,4
21.05.2018 16:00:00 7,7 5,9 0,0
21.05.2018 15:00:00 7,9 5,6 1,2
21.05.2018 14:00:00 7,8 6,3 0,6
21.05.2018 13:00:00 8,4 6,9 0,2
21.05.2018 12:00:00 8,7 7,3 0,4
21.05.2018 11:00:00 8,9 7,6 0,0
21.05.2018 10:00:00 9,6 8,3 0,4
21.05.2018 09:00:00 9,3 8,3 1,2
21.05.2018 08:00:00 9,3 8,5 1,4
21.05.2018 07:00:00 9,1 8,5 1,6
21.05.2018 06:00:00 9,0 8,3 1,6
21.05.2018 05:00:00 9,0 8,2 0,8
21.05.2018 04:00:00 9,1 8,3 0,8
21.05.2018 03:00:00 10,1 9,5 1,0
21.05.2018 02:00:00 10,3 9,5 0,0
21.05.2018 01:00:00 11,1 9,7 0,0
21.05.2018 00:00:00 11,6 10,2 0,0
20.05.2018 23:00:00 12,0 11,4 0,6
20.05.2018 22:00:00 12,9 11,5 0,0
20.05.2018 21:00:00 14,4 11,3 0,0
20.05.2018 20:00:00 14,5 11,4 0,0
20.05.2018 19:00:00 15,6 11,0 0,0
20.05.2018 18:00:00 16,0 10,9 0,0
20.05.2018 17:00:00 16,5 10,9 0,0
20.05.2018 16:00:00 16,9 10,8 0,0
20.05.2018 15:00:00 19,7 11,4 0,0
20.05.2018 14:00:00 19,6 11,0 0,0
20.05.2018 13:00:00 17,9 10,4 0,0
20.05.2018 12:00:00 17,0 10,3 0,0
20.05.2018 11:00:00 17,0 10,4 0,0
20.05.2018 10:00:00 16,3 9,7 0,0
20.05.2018 09:00:00 16,1 9,7 0,0
20.05.2018 08:00:00 16,4 9,9 0,0
20.05.2018 07:00:00 14,7 8,4 0,0
20.05.2018 06:00:00 14,2 8,0 0,0
20.05.2018 05:00:00 14,6 8,1 0,0
20.05.2018 04:00:00 14,5 8,4 0,0
20.05.2018 03:00:00 15,1 9,0 0,0
20.05.2018 02:00:00 14,0 7,6 0,0
20.05.2018 01:00:00 14,2 7,2 0,0
20.05.2018 00:00:00 13,6 7,1 0,0
19.05.2018 23:00:00 14,2 6,2 0,0
19.05.2018 22:00:00 15,2 6,0 0,0
19.05.2018 21:00:00 16,5 7,6 0,0
19.05.2018 20:00:00 17,5 7,6 0,0
19.05.2018 19:00:00 18,5 7,3 0,0
19.05.2018 18:00:00 19,4 7,4 0,0
19.05.2018 17:00:00 20,3 8,0 0,0
19.05.2018 16:00:00 19,9 7,8 0,0
19.05.2018 15:00:00 20,2 8,8 0,0
19.05.2018 14:00:00 20,3 8,6 0,0
19.05.2018 13:00:00 19,4 8,1 0,0
19.05.2018 12:00:00 18,3 7,6 0,0
19.05.2018 11:00:00 16,9 7,4 0,0
19.05.2018 10:00:00 17,6 8,3 0,0
19.05.2018 09:00:00 13,1 10,2 0,0
19.05.2018 08:00:00 11,8 8,5 0,0
19.05.2018 07:00:00 10,5 7,9 0,0
19.05.2018 06:00:00 10,1 7,5 0,0
19.05.2018 05:00:00 9,7 7,3 0,0
19.05.2018 04:00:00 9,8 7,3 0,0

tt = temperature
td = dewpoint
rr = precipitation

Next stations